createdAt,value
2018-12-02T00:00:21.652Z,9.90
2018-12-02T00:02:26.110Z,9.90
2018-12-02T00:04:30.390Z,10.00
2018-12-02T00:06:35.834Z,10.00
2018-12-02T00:08:40.261Z,10.00
2018-12-02T00:10:44.684Z,10.00
2018-12-02T00:12:48.807Z,10.00
2018-12-02T00:14:53.231Z,10.00
2018-12-02T00:16:57.634Z,10.00
2018-12-02T00:19:02.069Z,10.00
2018-12-02T00:21:06.399Z,10.00
2018-12-02T00:23:11.057Z,10.00
2018-12-02T00:25:16.073Z,10.00
2018-12-02T00:27:20.567Z,10.10
2018-12-02T00:29:24.748Z,10.10
2018-12-02T00:31:29.003Z,10.00
2018-12-02T00:33:33.272Z,10.00
2018-12-02T00:35:37.703Z,10.00
2018-12-02T00:37:42.529Z,10.00
2018-12-02T00:39:46.829Z,9.90
2018-12-02T00:41:51.272Z,9.90
2018-12-02T00:43:55.476Z,9.80
2018-12-02T00:45:59.696Z,9.80
2018-12-02T00:48:05.502Z,9.80
2018-12-02T00:50:15.087Z,9.80
2018-12-02T00:52:19.395Z,9.80
2018-12-02T00:54:25.849Z,9.80
2018-12-02T00:56:32.732Z,9.80
2018-12-02T00:58:36.971Z,9.80
2018-12-02T01:00:41.158Z,9.80
2018-12-02T01:02:48.488Z,9.80
2018-12-02T01:04:52.962Z,9.80
2018-12-02T01:06:57.265Z,9.80
2018-12-02T01:09:01.488Z,9.80
2018-12-02T01:11:06.286Z,9.80
2018-12-02T01:13:10.933Z,9.80
2018-12-02T01:15:18.026Z,9.80
2018-12-02T01:17:22.442Z,9.80
2018-12-02T01:19:26.522Z,9.80
2018-12-02T01:21:30.856Z,9.80
2018-12-02T01:23:35.265Z,9.80
2018-12-02T01:25:39.577Z,9.80
2018-12-02T01:27:44.387Z,9.80
2018-12-02T01:29:48.916Z,9.90
2018-12-02T01:31:53.257Z,9.80
2018-12-02T01:33:57.650Z,9.80
2018-12-02T01:36:01.967Z,9.90
2018-12-02T01:38:06.396Z,9.90
2018-12-02T01:40:12.062Z,9.90
2018-12-02T01:42:16.348Z,9.90
2018-12-02T01:44:21.904Z,9.90
2018-12-02T01:46:26.313Z,9.90
2018-12-02T01:48:30.836Z,9.90
2018-12-02T01:50:35.012Z,9.90
2018-12-02T01:52:39.349Z,9.90
2018-12-02T01:54:43.580Z,9.90
2018-12-02T01:56:47.967Z,9.90
2018-12-02T01:58:52.266Z,10.00
2018-12-02T02:00:56.516Z,10.00
2018-12-02T02:03:00.726Z,10.00
2018-12-02T02:05:05.485Z,10.00
2018-12-02T02:07:09.912Z,10.00
2018-12-02T02:09:14.298Z,10.00
2018-12-02T02:11:18.729Z,10.00
2018-12-02T02:13:23.002Z,10.00
2018-12-02T02:15:27.422Z,10.00
2018-12-02T02:17:31.771Z,10.10
2018-12-02T02:19:35.924Z,10.10
2018-12-02T02:21:40.267Z,10.10
2018-12-02T02:23:44.501Z,10.20
2018-12-02T02:25:48.917Z,10.20
2018-12-02T02:27:59.596Z,10.20
2018-12-02T02:30:04.436Z,10.10
2018-12-02T02:32:08.922Z,10.10
2018-12-02T02:34:13.419Z,10.00
2018-12-02T02:36:17.763Z,10.00
2018-12-02T02:38:22.149Z,9.90
2018-12-02T02:40:27.776Z,9.90
2018-12-02T02:42:31.935Z,9.80
2018-12-02T02:44:36.145Z,9.80
2018-12-02T02:46:40.533Z,9.70
2018-12-02T02:48:44.731Z,9.70
2018-12-02T02:50:49.183Z,9.70
2018-12-02T02:52:57.144Z,9.60
2018-12-02T02:55:01.506Z,9.60
2018-12-02T02:57:06.205Z,9.60
2018-12-02T02:59:10.532Z,9.60
2018-12-02T03:01:14.627Z,9.60
2018-12-02T03:03:18.976Z,9.50
2018-12-02T03:05:23.403Z,9.50
2018-12-02T03:07:27.578Z,9.50
2018-12-02T03:09:31.902Z,9.50
2018-12-02T03:11:36.419Z,9.50
2018-12-02T03:13:40.836Z,9.50
2018-12-02T03:15:45.053Z,9.50
2018-12-02T03:17:49.399Z,9.50
2018-12-02T03:19:53.880Z,9.50
2018-12-02T03:21:58.304Z,9.50
2018-12-02T03:24:02.490Z,9.50
2018-12-02T03:26:06.869Z,9.50
2018-12-02T03:28:11.039Z,9.50
2018-12-02T03:30:17.155Z,9.50
2018-12-02T03:32:21.536Z,9.50
2018-12-02T03:34:25.815Z,9.50
2018-12-02T03:36:30.213Z,9.50
2018-12-02T03:38:34.662Z,9.50
2018-12-02T03:40:38.788Z,9.50
2018-12-02T03:42:43.002Z,9.50
2018-12-02T03:44:47.348Z,9.50
2018-12-02T03:46:51.728Z,9.50
2018-12-02T03:48:56.038Z,9.50
2018-12-02T03:51:00.233Z,9.50
2018-12-02T03:53:04.562Z,9.50
2018-12-02T03:55:09.654Z,9.50
2018-12-02T03:57:13.881Z,9.50
2018-12-02T03:59:18.207Z,9.50
2018-12-02T04:01:22.633Z,9.50
2018-12-02T04:03:27.873Z,9.50
2018-12-02T04:05:32.109Z,9.50
2018-12-02T04:07:36.839Z,9.50
2018-12-02T04:09:41.312Z,9.50
2018-12-02T04:11:45.666Z,9.50
2018-12-02T04:13:49.964Z,9.50
2018-12-02T04:15:54.229Z,9.50
2018-12-02T04:17:58.652Z,9.50
2018-12-02T04:20:02.981Z,9.50
2018-12-02T04:22:07.214Z,9.50
2018-12-02T04:24:11.538Z,9.50
2018-12-02T04:26:15.837Z,9.50
2018-12-02T04:28:20.261Z,9.50
2018-12-02T04:30:24.723Z,9.50
2018-12-02T04:32:29.054Z,9.50
2018-12-02T04:34:33.397Z,9.50
2018-12-02T04:36:37.701Z,9.50
2018-12-02T04:38:42.002Z,9.50
2018-12-02T04:40:46.240Z,9.50
2018-12-02T04:42:50.921Z,9.50
2018-12-02T04:44:55.193Z,9.50
2018-12-02T04:46:59.406Z,9.50
2018-12-02T04:49:03.808Z,9.50
2018-12-02T04:51:08.945Z,9.50
2018-12-02T04:53:13.401Z,9.50
2018-12-02T04:55:17.690Z,9.50
2018-12-02T04:57:22.213Z,9.50
2018-12-02T04:59:26.622Z,9.50
2018-12-02T05:01:30.797Z,9.40
2018-12-02T05:03:35.076Z,9.40
2018-12-02T05:05:39.680Z,9.40
2018-12-02T05:07:44.139Z,9.40
2018-12-02T05:09:48.486Z,9.50
2018-12-02T05:11:52.932Z,9.50
2018-12-02T05:13:57.229Z,9.50
2018-12-02T05:16:01.479Z,9.50
2018-12-02T05:18:06.052Z,9.50
2018-12-02T05:20:12.335Z,9.40
2018-12-02T05:22:16.775Z,9.40
2018-12-02T05:24:21.029Z,9.50
2018-12-02T05:26:25.466Z,9.40
2018-12-02T05:28:29.709Z,9.40
2018-12-02T05:30:33.903Z,9.40
2018-12-02T05:32:38.198Z,9.40
2018-12-02T05:34:42.577Z,9.40
2018-12-02T05:36:46.954Z,9.40
2018-12-02T05:38:51.272Z,9.40
2018-12-02T05:40:55.543Z,9.40
2018-12-02T05:43:00.075Z,9.30
2018-12-02T05:45:04.550Z,9.30
2018-12-02T05:47:08.808Z,9.30
2018-12-02T05:49:13.054Z,9.30
2018-12-02T05:51:17.434Z,9.30
2018-12-02T05:53:22.070Z,9.30
2018-12-02T05:55:27.459Z,9.30
2018-12-02T05:57:31.630Z,9.30
2018-12-02T05:59:35.854Z,9.30
2018-12-02T06:01:40.179Z,9.30
2018-12-02T06:03:44.451Z,9.30
2018-12-02T06:05:48.768Z,9.30
2018-12-02T06:07:53.201Z,9.30
2018-12-02T06:09:57.378Z,9.30
2018-12-02T06:12:01.634Z,9.40
2018-12-02T06:14:05.934Z,9.40
2018-12-02T06:16:10.635Z,9.40
2018-12-02T06:18:15.425Z,9.40
2018-12-02T06:20:21.630Z,9.40
2018-12-02T06:22:26.064Z,9.40
2018-12-02T06:24:30.392Z,9.40
2018-12-02T06:26:34.800Z,9.40
2018-12-02T06:28:39.126Z,9.40
2018-12-02T06:30:43.145Z,9.40
2018-12-02T06:32:48.217Z,9.40
2018-12-02T06:34:52.612Z,9.40
2018-12-02T06:36:56.975Z,9.40
2018-12-02T06:39:01.302Z,9.50
2018-12-02T06:41:06.013Z,9.50
2018-12-02T06:43:10.439Z,9.50
2018-12-02T06:45:16.220Z,9.60
2018-12-02T06:47:20.471Z,9.60
2018-12-02T06:49:25.053Z,9.60
2018-12-02T06:51:29.322Z,9.70
2018-12-02T06:53:33.696Z,9.70
2018-12-02T06:55:51.125Z,9.80
2018-12-02T06:58:05.983Z,9.80
2018-12-02T07:00:24.679Z,9.80
2018-12-02T07:02:40.741Z,9.90
2018-12-02T07:04:45.708Z,9.90
2018-12-02T07:06:51.429Z,9.90
2018-12-02T07:08:56.038Z,9.90
2018-12-02T07:11:00.481Z,10.00
2018-12-02T07:13:05.042Z,10.00
2018-12-02T07:15:09.458Z,10.00
2018-12-02T07:17:16.796Z,10.10
2018-12-02T07:19:26.992Z,10.10
2018-12-02T07:21:38.617Z,10.10
2018-12-02T07:23:46.959Z,10.10
2018-12-02T07:25:54.712Z,10.10
2018-12-02T07:27:59.927Z,10.20
2018-12-02T07:30:04.849Z,10.20
2018-12-02T07:32:09.175Z,10.30
2018-12-02T07:34:13.688Z,10.30
2018-12-02T07:36:18.591Z,10.30
2018-12-02T07:39:00.236Z,10.30
2018-12-02T07:41:05.052Z,10.40
2018-12-02T07:43:13.177Z,10.40
2018-12-02T07:45:17.734Z,10.40
2018-12-02T07:47:22.179Z,10.40
2018-12-02T07:49:26.682Z,10.40
2018-12-02T07:51:31.113Z,10.50
2018-12-02T07:53:35.518Z,10.50
2018-12-02T07:55:39.773Z,10.50
2018-12-02T07:57:44.160Z,10.50
2018-12-02T07:59:48.415Z,10.60
2018-12-02T08:01:52.850Z,10.60
2018-12-02T08:03:57.176Z,10.60
2018-12-02T08:06:01.478Z,10.60
2018-12-02T08:08:05.997Z,10.60
2018-12-02T08:10:15.124Z,10.70
2018-12-02T08:12:19.411Z,10.70
2018-12-02T08:14:23.786Z,10.70
2018-12-02T08:16:28.076Z,10.70
2018-12-02T08:18:32.416Z,10.70
2018-12-02T08:20:36.590Z,10.80
2018-12-02T08:22:41.044Z,10.80
2018-12-02T08:24:45.373Z,10.90
2018-12-02T08:26:49.650Z,10.90
2018-12-02T08:28:54.050Z,10.90
2018-12-02T08:30:58.756Z,11.00
2018-12-02T08:33:03.095Z,11.00
2018-12-02T08:35:09.359Z,11.00
2018-12-02T08:37:13.682Z,11.00
2018-12-02T08:39:18.101Z,11.00
2018-12-02T08:41:22.306Z,11.00
2018-12-02T08:43:26.724Z,11.10
2018-12-02T08:45:30.953Z,11.10
2018-12-02T08:47:35.371Z,11.10
2018-12-02T08:49:39.774Z,11.10
2018-12-02T08:51:44.187Z,11.10
2018-12-02T08:53:48.508Z,11.10
2018-12-02T08:55:53.335Z,11.10
2018-12-02T08:57:57.736Z,11.20
2018-12-02T09:00:02.223Z,11.20
2018-12-02T09:02:06.545Z,11.20
2018-12-02T09:04:11.042Z,11.30
2018-12-02T09:06:15.328Z,11.30
2018-12-02T09:08:19.864Z,11.30
2018-12-02T09:10:25.954Z,11.30
2018-12-02T09:12:30.563Z,11.40
2018-12-02T09:14:35.011Z,11.40
2018-12-02T09:16:39.360Z,11.40
2018-12-02T09:18:43.665Z,11.50
2018-12-02T09:20:48.187Z,11.50
2018-12-02T09:22:52.456Z,11.50
2018-12-02T09:24:56.789Z,11.50
2018-12-02T09:27:01.154Z,11.50
2018-12-02T09:29:05.831Z,11.50
2018-12-02T09:31:10.092Z,11.60
2018-12-02T09:33:14.484Z,11.60
2018-12-02T09:35:18.887Z,11.60
2018-12-02T09:37:23.270Z,11.60
2018-12-02T09:39:27.726Z,11.70
2018-12-02T09:41:32.040Z,11.70
2018-12-02T09:43:36.476Z,11.80
2018-12-02T09:45:40.786Z,11.80
2018-12-02T09:47:45.221Z,11.80
2018-12-02T09:49:49.579Z,11.80
2018-12-02T09:51:53.913Z,11.90
2018-12-02T09:53:58.334Z,11.90
2018-12-02T09:56:02.755Z,12.00
2018-12-02T09:58:08.835Z,12.10
2018-12-02T10:00:15.145Z,12.20
2018-12-02T10:02:19.527Z,12.30
2018-12-02T10:04:23.775Z,12.40
2018-12-02T10:06:28.128Z,12.50
2018-12-02T10:08:32.434Z,12.60
2018-12-02T10:10:36.750Z,12.60
2018-12-02T10:12:41.206Z,12.70
2018-12-02T10:14:45.366Z,12.70
2018-12-02T10:16:49.721Z,12.80
2018-12-02T10:19:00.154Z,12.80
2018-12-02T10:21:04.465Z,12.80
2018-12-02T10:23:09.212Z,12.80
2018-12-02T10:25:14.504Z,12.90
2018-12-02T10:27:18.964Z,12.90
2018-12-02T10:29:23.364Z,12.90
2018-12-02T10:31:27.659Z,12.80
2018-12-02T10:33:32.154Z,12.90
2018-12-02T10:35:36.738Z,13.00
2018-12-02T10:37:42.119Z,13.10
2018-12-02T10:39:48.963Z,13.20
2018-12-02T10:41:53.284Z,13.30
2018-12-02T10:43:57.626Z,13.30
2018-12-02T10:46:03.315Z,13.30
2018-12-02T10:48:11.046Z,13.30
2018-12-02T10:50:17.400Z,13.30
2018-12-02T10:52:24.196Z,13.50
2018-12-02T10:54:29.334Z,13.60
2018-12-02T10:56:33.085Z,13.90
2018-12-02T10:58:37.582Z,13.90
2018-12-02T11:00:46.915Z,13.80
2018-12-02T11:02:51.300Z,13.90
2018-12-02T11:04:55.844Z,13.90
2018-12-02T11:07:00.567Z,13.70
2018-12-02T11:09:07.965Z,13.70
2018-12-02T11:11:12.391Z,13.80
2018-12-02T11:13:16.585Z,13.80
2018-12-02T11:15:20.819Z,13.70
2018-12-02T11:17:25.106Z,13.60
2018-12-02T11:19:29.687Z,13.50
2018-12-02T11:21:34.065Z,13.40
2018-12-02T11:23:38.338Z,13.40
2018-12-02T11:25:42.664Z,13.30
2018-12-02T11:27:46.885Z,13.30
2018-12-02T11:29:51.221Z,13.40
2018-12-02T11:31:55.627Z,13.40
2018-12-02T11:34:00.187Z,13.50
2018-12-02T11:36:04.796Z,13.60
2018-12-02T11:38:09.879Z,13.60
2018-12-02T11:40:16.025Z,13.60
2018-12-02T11:42:20.504Z,13.70
2018-12-02T11:44:24.808Z,13.80
2018-12-02T11:46:29.126Z,13.90
2018-12-02T11:48:33.763Z,13.90
2018-12-02T11:50:38.506Z,13.90
2018-12-02T11:52:42.885Z,13.90
2018-12-02T11:54:47.203Z,14.00
2018-12-02T11:56:51.520Z,14.10
2018-12-02T11:58:55.801Z,14.20
2018-12-02T12:01:00.200Z,14.20
2018-12-02T12:03:04.200Z,14.30
2018-12-02T12:05:09.040Z,14.20
2018-12-02T12:07:13.368Z,14.30
2018-12-02T12:09:17.814Z,14.20
2018-12-02T12:11:22.137Z,14.10
2018-12-02T12:13:26.533Z,14.00
2018-12-02T12:15:31.676Z,13.90
2018-12-02T12:17:36.035Z,13.90
2018-12-02T12:19:40.441Z,13.80
2018-12-02T12:21:44.950Z,13.90
2018-12-02T12:23:49.468Z,13.90
2018-12-02T12:25:54.122Z,13.80
2018-12-02T12:27:59.022Z,13.80
2018-12-02T12:30:03.412Z,13.80
2018-12-02T12:32:08.376Z,13.80
2018-12-02T12:34:12.551Z,13.80
2018-12-02T12:36:17.183Z,13.80
2018-12-02T12:38:22.373Z,13.80
2018-12-02T12:40:31.337Z,13.80
2018-12-02T12:42:35.546Z,13.90
2018-12-02T12:44:40.066Z,14.00
2018-12-02T12:46:44.472Z,14.00
2018-12-02T12:48:48.815Z,14.00
2018-12-02T12:50:53.171Z,14.00
2018-12-02T12:52:57.430Z,14.00
2018-12-02T12:55:01.745Z,13.90
2018-12-02T12:57:06.343Z,14.00
2018-12-02T12:59:10.743Z,13.90
2018-12-02T13:01:15.197Z,13.90
2018-12-02T13:03:19.590Z,13.90
2018-12-02T13:05:26.053Z,13.80
2018-12-02T13:07:30.602Z,13.80
2018-12-02T13:09:35.320Z,13.80
2018-12-02T13:11:39.537Z,13.70
2018-12-02T13:13:43.802Z,13.70
2018-12-02T13:15:48.112Z,13.70
2018-12-02T13:17:58.096Z,13.60
2018-12-02T13:20:02.251Z,13.70
2018-12-02T13:22:06.750Z,13.70
2018-12-02T13:24:11.047Z,13.60
2018-12-02T13:26:15.377Z,13.60
2018-12-02T13:28:19.790Z,13.60
2018-12-02T13:30:24.214Z,13.60
2018-12-02T13:32:28.475Z,13.60
2018-12-02T13:34:32.827Z,13.50
2018-12-02T13:36:37.131Z,13.60
2018-12-02T13:38:41.549Z,13.50
2018-12-02T13:40:45.995Z,13.50
2018-12-02T13:42:58.497Z,13.50
2018-12-02T13:45:02.815Z,13.50
2018-12-02T13:47:07.218Z,13.50
2018-12-02T13:49:11.435Z,13.50
2018-12-02T13:51:16.979Z,13.50
2018-12-02T13:53:21.353Z,13.40
2018-12-02T13:55:28.019Z,13.40
2018-12-02T13:57:32.280Z,13.40
2018-12-02T13:59:36.793Z,13.40
2018-12-02T14:01:41.614Z,13.40
2018-12-02T14:03:46.090Z,13.40
2018-12-02T14:05:50.548Z,13.40
2018-12-02T14:07:54.714Z,13.40
2018-12-02T14:09:58.975Z,13.40
2018-12-02T14:12:03.423Z,13.30
2018-12-02T14:14:09.160Z,13.30
2018-12-02T14:16:55.066Z,13.30
2018-12-02T14:19:01.648Z,13.30
2018-12-02T14:21:06.795Z,13.30
2018-12-02T14:23:11.137Z,13.30
2018-12-02T14:25:15.965Z,13.30
2018-12-02T14:27:20.533Z,13.20
2018-12-02T14:29:29.352Z,13.20
2018-12-02T14:31:35.539Z,13.20
2018-12-02T14:33:39.938Z,13.20
2018-12-02T14:35:44.367Z,13.20
2018-12-02T14:37:48.742Z,13.10
2018-12-02T14:39:53.172Z,13.10
2018-12-02T14:41:57.469Z,13.10
2018-12-02T14:44:01.688Z,13.10
2018-12-02T14:46:06.151Z,13.10
2018-12-02T14:48:10.483Z,13.10
2018-12-02T14:50:15.904Z,13.20
2018-12-02T14:52:20.258Z,13.20
2018-12-02T14:54:24.821Z,13.20
2018-12-02T14:56:29.231Z,13.10
2018-12-02T14:58:34.385Z,13.20
2018-12-02T15:00:38.797Z,13.10
2018-12-02T15:02:43.625Z,13.10
2018-12-02T15:04:47.993Z,13.10
2018-12-02T15:06:52.676Z,13.00
2018-12-02T15:08:57.142Z,13.00
2018-12-02T15:11:01.478Z,13.00
2018-12-02T15:13:06.084Z,13.00
2018-12-02T15:15:12.137Z,13.00
2018-12-02T15:17:16.688Z,13.00
2018-12-02T15:19:20.796Z,12.90
2018-12-02T15:21:25.199Z,12.90
2018-12-02T15:23:30.827Z,12.90
2018-12-02T15:25:35.348Z,12.90
2018-12-02T15:27:39.865Z,12.90
2018-12-02T15:29:44.456Z,12.90
2018-12-02T15:31:50.546Z,12.90
2018-12-02T15:33:55.057Z,12.90
2018-12-02T15:35:59.582Z,13.00
2018-12-02T15:38:04.096Z,13.00
2018-12-02T15:40:11.035Z,12.90
2018-12-02T15:42:16.348Z,12.90
2018-12-02T15:44:20.602Z,12.90
2018-12-02T15:46:24.910Z,12.90
2018-12-02T15:48:29.370Z,12.80
2018-12-02T15:50:33.877Z,12.80
2018-12-02T15:52:38.292Z,12.80
2018-12-02T15:54:42.798Z,12.80
2018-12-02T15:56:46.999Z,12.80
2018-12-02T15:58:51.550Z,12.80
2018-12-02T16:00:56.496Z,12.70
2018-12-02T16:03:00.936Z,12.80
2018-12-02T16:05:05.284Z,12.80
2018-12-02T16:07:10.266Z,12.80
2018-12-02T16:09:15.086Z,12.80
2018-12-02T16:11:19.175Z,12.80
2018-12-02T16:13:23.779Z,12.80
2018-12-02T16:15:32.449Z,12.80
2018-12-02T16:17:36.905Z,12.80
2018-12-02T16:19:41.346Z,12.80
2018-12-02T16:21:45.667Z,12.90
2018-12-02T16:23:49.975Z,12.90
2018-12-02T16:25:54.289Z,12.90
2018-12-02T16:27:58.701Z,12.90
2018-12-02T16:30:03.104Z,12.90
2018-12-02T16:32:07.777Z,12.90
2018-12-02T16:34:12.166Z,12.90
2018-12-02T16:36:16.568Z,12.80
2018-12-02T16:38:20.850Z,12.90
2018-12-02T16:40:25.832Z,12.90
2018-12-02T16:42:30.456Z,12.80
2018-12-02T16:44:35.173Z,12.80
2018-12-02T16:46:39.694Z,12.80
2018-12-02T16:48:44.403Z,12.80
2018-12-02T16:50:49.331Z,12.90
2018-12-02T16:52:54.799Z,12.80
2018-12-02T16:54:59.295Z,12.90
2018-12-02T16:57:05.220Z,12.80
2018-12-02T16:59:19.664Z,12.80
2018-12-02T17:01:25.285Z,12.90
2018-12-02T17:03:29.777Z,12.90
2018-12-02T17:05:34.089Z,12.90
2018-12-02T17:07:38.391Z,12.90
2018-12-02T17:09:42.714Z,13.00
2018-12-02T17:11:47.242Z,13.00
2018-12-02T17:13:51.561Z,13.00
2018-12-02T17:15:56.080Z,13.00
2018-12-02T17:18:00.492Z,13.00
2018-12-02T17:20:05.619Z,13.00
2018-12-02T17:22:10.074Z,13.00
2018-12-02T17:24:14.526Z,13.00
2018-12-02T17:26:19.294Z,13.00
2018-12-02T17:28:28.734Z,13.00
2018-12-02T17:30:35.553Z,13.00
2018-12-02T17:32:39.963Z,13.00
2018-12-02T17:34:44.285Z,13.00
2018-12-02T17:36:48.732Z,13.00
2018-12-02T17:38:56.492Z,13.00
2018-12-02T17:41:00.870Z,13.00
2018-12-02T17:43:05.831Z,13.00
2018-12-02T17:45:11.227Z,13.00
2018-12-02T17:47:15.634Z,13.00
2018-12-02T17:49:19.953Z,13.00
2018-12-02T17:51:24.480Z,12.90
2018-12-02T17:53:29.212Z,12.90
2018-12-02T17:55:33.959Z,12.90
2018-12-02T17:57:38.326Z,12.90
2018-12-02T17:59:42.690Z,12.90
2018-12-02T18:01:47.065Z,12.90
2018-12-02T18:03:52.202Z,12.90
2018-12-02T18:05:56.828Z,12.90
2018-12-02T18:08:01.044Z,12.90
2018-12-02T18:10:06.586Z,12.90
2018-12-02T18:12:11.399Z,12.90
2018-12-02T18:14:16.021Z,12.90
2018-12-02T18:16:20.370Z,12.90
2018-12-02T18:18:24.814Z,12.80
2018-12-02T18:20:29.218Z,12.80
2018-12-02T18:22:33.689Z,12.80
2018-12-02T18:24:38.011Z,12.80
2018-12-02T18:26:42.468Z,12.80
2018-12-02T18:28:46.858Z,12.80
2018-12-02T18:30:51.425Z,12.80
2018-12-02T18:32:57.093Z,12.80
2018-12-02T18:35:01.309Z,12.80
2018-12-02T18:37:07.246Z,12.90
2018-12-02T18:39:14.244Z,12.90
2018-12-02T18:41:23.586Z,12.90
2018-12-02T18:43:27.736Z,12.80
2018-12-02T18:45:32.686Z,12.80
2018-12-02T18:47:37.161Z,12.90
2018-12-02T18:49:41.582Z,12.80
2018-12-02T18:51:46.100Z,12.80
2018-12-02T18:53:51.632Z,12.90
2018-12-02T18:55:56.248Z,12.90
2018-12-02T18:58:00.756Z,12.80
2018-12-02T19:00:09.233Z,12.90
2018-12-02T19:02:13.095Z,12.80
2018-12-02T19:04:17.516Z,12.90
2018-12-02T19:06:22.113Z,12.90
2018-12-02T19:08:26.398Z,12.80
2018-12-02T19:10:30.751Z,12.90
2018-12-02T19:12:35.172Z,12.90
2018-12-02T19:14:39.439Z,12.80
2018-12-02T19:16:43.680Z,12.90
2018-12-02T19:18:49.148Z,12.80
2018-12-02T19:20:55.188Z,12.80
2018-12-02T19:23:02.368Z,12.90
2018-12-02T19:25:08.251Z,12.80
2018-12-02T19:27:12.524Z,12.80
2018-12-02T19:29:16.971Z,12.80
2018-12-02T19:31:21.887Z,12.80
2018-12-02T19:33:26.915Z,12.80
2018-12-02T19:35:32.889Z,12.80
2018-12-02T19:37:37.348Z,12.80
2018-12-02T19:39:41.689Z,12.80
2018-12-02T19:41:46.221Z,12.80
2018-12-02T19:43:50.292Z,12.80
2018-12-02T19:45:54.643Z,12.70
2018-12-02T19:47:59.062Z,12.70
2018-12-02T19:50:04.019Z,12.60
2018-12-02T19:52:08.214Z,12.60
2018-12-02T19:54:12.746Z,12.60
2018-12-02T19:56:17.408Z,12.50
2018-12-02T19:58:21.779Z,12.50
2018-12-02T20:00:30.952Z,12.50
2018-12-02T20:02:35.504Z,12.50
2018-12-02T20:04:39.833Z,12.50
2018-12-02T20:06:45.218Z,12.40
2018-12-02T20:08:49.534Z,12.50
2018-12-02T20:10:54.955Z,12.40
2018-12-02T20:13:02.162Z,12.50
2018-12-02T20:15:08.559Z,12.50
2018-12-02T20:17:12.996Z,12.50
2018-12-02T20:19:22.437Z,12.50
2018-12-02T20:21:26.941Z,12.50
2018-12-02T20:23:36.305Z,12.50
2018-12-02T20:25:41.626Z,12.50
2018-12-02T20:27:45.925Z,12.50
2018-12-02T20:29:50.276Z,12.50
2018-12-02T20:31:54.978Z,12.50
2018-12-02T20:33:59.491Z,12.50
2018-12-02T20:36:03.935Z,12.50
2018-12-02T20:38:08.317Z,12.50
2018-12-02T20:40:15.698Z,12.50
2018-12-02T20:42:20.057Z,12.50
2018-12-02T20:44:24.706Z,12.50
2018-12-02T20:46:28.964Z,12.50
2018-12-02T20:48:33.583Z,12.50
2018-12-02T20:50:37.895Z,12.50
2018-12-02T20:52:42.304Z,12.50
2018-12-02T20:54:46.846Z,12.50
2018-12-02T20:56:51.353Z,12.50
2018-12-02T20:58:55.994Z,12.50
2018-12-02T21:01:00.690Z,12.50
2018-12-02T21:03:08.903Z,12.50
2018-12-02T21:06:25.982Z,12.50
2018-12-02T21:08:30.365Z,12.50
2018-12-02T21:10:36.087Z,12.50
2018-12-02T21:12:40.689Z,12.50
2018-12-02T21:14:45.340Z,12.50
2018-12-02T21:16:49.947Z,12.50
2018-12-02T21:18:54.458Z,12.40
2018-12-02T21:20:58.990Z,12.50
2018-12-02T21:23:03.267Z,12.50
2018-12-02T21:25:14.031Z,12.50
2018-12-02T21:27:18.388Z,12.50
2018-12-02T21:29:27.815Z,12.50
2018-12-02T21:31:32.657Z,12.50
2018-12-02T21:33:36.461Z,12.50
2018-12-02T21:35:40.780Z,12.50
2018-12-02T21:37:45.410Z,12.50
2018-12-02T21:39:49.730Z,12.50
2018-12-02T21:41:54.108Z,12.50
2018-12-02T21:43:58.524Z,12.50
2018-12-02T21:46:02.851Z,12.60
2018-12-02T21:48:10.349Z,12.50
2018-12-02T21:50:32.071Z,12.60
2018-12-02T21:52:36.346Z,12.60
2018-12-02T21:54:40.648Z,12.60
2018-12-02T21:56:44.892Z,12.60
2018-12-02T21:58:49.251Z,12.60
2018-12-02T22:00:58.713Z,12.60
2018-12-02T22:03:03.091Z,12.60
2018-12-02T22:05:07.379Z,12.60
2018-12-02T22:07:11.872Z,12.60
2018-12-02T22:09:16.253Z,12.60
2018-12-02T22:11:20.730Z,12.60
2018-12-02T22:13:24.955Z,12.60
2018-12-02T22:15:29.367Z,12.60
2018-12-02T22:17:33.688Z,12.50
2018-12-02T22:19:37.917Z,12.60
2018-12-02T22:21:42.125Z,12.60
2018-12-02T22:23:46.426Z,12.60
2018-12-02T22:25:51.055Z,12.60
2018-12-02T22:27:56.965Z,12.60
2018-12-02T22:30:01.289Z,12.60
2018-12-02T22:32:06.004Z,12.60
2018-12-02T22:34:10.342Z,12.60
2018-12-02T22:36:14.756Z,12.60
2018-12-02T22:38:19.045Z,12.60
2018-12-02T22:40:24.466Z,12.60
2018-12-02T22:42:28.855Z,12.60
2018-12-02T22:44:33.299Z,12.70
2018-12-02T22:46:37.777Z,12.70
2018-12-02T22:48:42.178Z,12.70
2018-12-02T22:50:46.407Z,12.70
2018-12-02T22:52:51.699Z,12.70
2018-12-02T22:54:56.062Z,12.70
2018-12-02T22:57:00.264Z,12.70
2018-12-02T22:59:04.784Z,12.70
2018-12-02T23:01:14.242Z,12.70
2018-12-02T23:03:18.485Z,12.70
2018-12-02T23:05:22.823Z,12.70
2018-12-02T23:07:27.940Z,12.70
2018-12-02T23:09:32.308Z,12.70
2018-12-02T23:11:36.808Z,12.70
2018-12-02T23:13:41.138Z,12.70
2018-12-02T23:15:45.571Z,12.70
2018-12-02T23:17:50.079Z,12.70
2018-12-02T23:19:54.475Z,12.70
2018-12-02T23:21:58.731Z,12.80
2018-12-02T23:24:03.133Z,12.70
2018-12-02T23:26:07.717Z,12.70
2018-12-02T23:28:12.090Z,12.70
2018-12-02T23:30:21.625Z,12.70
2018-12-02T23:32:25.795Z,12.70
2018-12-02T23:34:30.164Z,12.70
2018-12-02T23:36:34.529Z,12.60
2018-12-02T23:38:38.749Z,12.70
2018-12-02T23:40:43.017Z,12.60
2018-12-02T23:42:47.449Z,12.60
2018-12-02T23:44:51.847Z,12.60
2018-12-02T23:46:56.341Z,12.50
2018-12-02T23:49:00.758Z,12.50
2018-12-02T23:51:05.239Z,12.50
2018-12-02T23:53:09.576Z,12.50
2018-12-02T23:55:14.842Z,12.60
2018-12-02T23:57:19.114Z,12.50
2018-12-02T23:59:23.438Z,12.50
